Time;durP1;ratioP1;P1;durP2;ratioP2;P2;SDS_P1;SDS_P2;PMS_P1;PMS_P2;Temp;Humidity;BMP_temperature;BMP_pressure;BME280_temperature;BME280_humidity;BME280_pressure;Samples;Min_cycle;Max_cycle;Signal;HPM_P1;HPM_P2
2023/08/06 00:02:05;;;;;;;9.48;3.25;;;15.30;99.90;;;;;;4988057;28;20025;-80
2023/08/06 00:04:30;;;;;;;6.00;3.13;;;15.30;99.90;;;;;;4975095;28;20052;-80
2023/08/06 00:06:56;;;;;;;3.15;2.67;;;15.20;99.90;;;;;;5003673;28;20067;-80
2023/08/06 00:09:21;;;;;;;3.28;2.97;;;15.30;99.90;;;;;;5006244;28;20080;-79
2023/08/06 00:11:47;;;;;;;2.97;2.22;;;15.30;99.90;;;;;;4981178;28;20108;-79
2023/08/06 00:14:15;;;;;;;3.83;2.60;;;15.20;99.90;;;;;;5008956;28;20038;-79
2023/08/06 00:16:43;;;;;;;3.72;2.90;;;15.30;99.90;;;;;;4976764;28;20485;-79
2023/08/06 00:19:08;;;;;;;5.35;3.05;;;15.30;99.90;;;;;;4977270;28;20037;-80
2023/08/06 00:21:34;;;;;;;4.03;2.90;;;15.20;99.90;;;;;;4976616;28;20723;-80
2023/08/06 00:23:59;;;;;;;5.53;2.95;;;15.30;99.90;;;;;;4993007;28;20033;-79
2023/08/06 00:26:25;;;;;;;3.45;2.70;;;15.30;99.90;;;;;;4993779;28;20041;-79
2023/08/06 00:28:51;;;;;;;3.25;2.70;;;15.30;99.90;;;;;;4989369;28;20037;-78
2023/08/06 00:31:17;;;;;;;3.55;2.97;;;15.30;99.90;;;;;;4974569;28;20570;-78
2023/08/06 00:33:42;;;;;;;4.82;2.65;;;15.20;99.90;;;;;;4982102;28;20025;-77
2023/08/06 00:36:08;;;;;;;4.22;2.42;;;15.30;99.90;;;;;;4994414;28;20038;-78
2023/08/06 00:38:33;;;;;;;4.53;3.17;;;15.20;99.90;;;;;;4991283;28;20029;-77
2023/08/06 00:40:59;;;;;;;3.58;2.60;;;15.20;99.90;;;;;;4982274;28;20038;-78
2023/08/06 00:43:24;;;;;;;3.70;2.63;;;15.10;99.90;;;;;;4995503;28;20069;-78
2023/08/06 00:45:50;;;;;;;4.32;2.72;;;15.20;99.90;;;;;;4995055;28;20030;-78
2023/08/06 00:48:15;;;;;;;3.75;2.72;;;15.10;99.90;;;;;;4990563;28;20529;-78
2023/08/06 00:50:41;;;;;;;4.75;2.70;;;15.20;99.90;;;;;;4976921;28;20497;-78
2023/08/06 00:53:07;;;;;;;3.28;2.90;;;15.10;99.90;;;;;;5004707;28;20061;-77
2023/08/06 00:55:33;;;;;;;3.95;2.60;;;15.10;99.90;;;;;;4987718;28;20040;-79
2023/08/06 00:57:58;;;;;;;5.30;3.08;;;15.10;99.90;;;;;;5010548;28;20444;-78
2023/08/06 01:00:24;;;;;;;5.78;2.60;;;15.10;99.90;;;;;;5004870;28;20041;-78
2023/08/06 01:02:50;;;;;;;4.05;3.13;;;15.00;99.90;;;;;;4991289;28;20033;-78
2023/08/06 01:05:16;;;;;;;4.35;2.92;;;15.00;99.90;;;;;;4987607;28;20030;-78
2023/08/06 01:08:06;;;;;;;8.02;2.88;;;15.10;99.90;;;;;;4974446;28;20039;-77
2023/08/06 01:10:51;;;;;;;3.83;2.85;;;15.00;99.90;;;;;;5005716;28;20102;-77
2023/08/06 01:13:46;;;;;;;4.68;3.67;;;15.00;99.90;;;;;;4986273;28;20041;-78
2023/08/06 01:16:14;;;;;;;2.58;2.38;;;15.00;99.90;;;;;;4980932;28;20037;-78
2023/08/06 01:18:41;;;;;;;4.05;3.00;;;15.00;99.90;;;;;;4973869;28;20045;-79
2023/08/06 01:21:07;;;;;;;3.95;3.20;;;15.10;99.90;;;;;;4989958;28;20103;-78
2023/08/06 01:23:33;;;;;;;8.95;3.40;;;15.30;99.90;;;;;;5007021;28;20029;-78
2023/08/06 01:26:32;;;;;;;3.50;2.90;;;15.10;99.90;;;;;;4989040;28;20400;-78
2023/08/06 01:29:13;;;;;;;7.35;2.60;;;15.10;99.90;;;;;;4983384;28;20026;-78
2023/08/06 01:31:39;;;;;;;3.50;2.72;;;15.10;99.90;;;;;;5004017;28;20395;-78
2023/08/06 01:34:20;;;;;;;3.55;2.47;;;15.00;99.90;;;;;;4992129;28;20033;-78
2023/08/06 01:36:46;;;;;;;4.10;2.47;;;15.10;99.90;;;;;;4976375;28;20254;-78
2023/08/06 01:39:11;;;;;;;4.93;2.70;;;15.20;99.90;;;;;;4978061;28;20034;-78
2023/08/06 01:41:37;;;;;;;3.53;2.97;;;15.20;99.90;;;;;;4974824;28;20045;-78
2023/08/06 01:44:03;;;;;;;7.28;2.67;;;15.20;99.90;;;;;;5009841;28;20367;-78
2023/08/06 01:46:28;;;;;;;2.95;2.47;;;15.20;99.90;;;;;;4978018;28;20092;-78
2023/08/06 01:48:54;;;;;;;6.25;2.70;;;15.30;99.90;;;;;;4988770;28;20064;-78
2023/08/06 01:51:20;;;;;;;2.80;2.20;;;15.20;99.90;;;;;;4982623;28;20439;-78
2023/08/06 01:53:46;;;;;;;6.47;2.58;;;15.20;99.90;;;;;;5019832;28;20117;-78
2023/08/06 01:56:12;;;;;;;4.43;2.50;;;15.20;99.90;;;;;;5003037;28;20137;-78
2023/08/06 01:58:37;;;;;;;3.17;2.88;;;15.20;99.90;;;;;;4990503;28;20044;-77
2023/08/06 02:01:03;;;;;;;4.45;3.10;;;15.10;99.90;;;;;;4994312;28;20084;-77
2023/08/06 02:03:28;;;;;;;6.75;2.83;;;15.20;99.90;;;;;;4976332;28;20052;-77
2023/08/06 02:05:54;;;;;;;5.35;2.97;;;15.10;99.90;;;;;;5004305;28;20044;-78
2023/08/06 02:08:20;;;;;;;2.75;2.50;;;15.10;99.90;;;;;;4984452;28;20045;-79
2023/08/06 02:10:45;;;;;;;6.95;2.30;;;15.10;99.90;;;;;;4977052;28;20041;-78
2023/08/06 02:13:11;;;;;;;4.63;2.70;;;15.20;99.90;;;;;;4988703;28;20038;-79
2023/08/06 02:15:43;;;;;;;3.78;2.95;;;15.20;99.90;;;;;;4977764;28;20038;-78
2023/08/06 02:18:08;;;;;;;4.22;2.28;;;15.10;99.90;;;;;;4973886;28;20037;-77
2023/08/06 02:20:34;;;;;;;4.38;2.65;;;15.20;99.90;;;;;;4972916;28;20064;-78
2023/08/06 02:22:59;;;;;;;2.92;2.45;;;15.20;99.90;;;;;;4991315;28;20029;-78
2023/08/06 02:25:25;;;;;;;5.57;3.03;;;15.20;99.90;;;;;;4971503;28;20095;-78
2023/08/06 02:27:51;;;;;;;4.55;2.53;;;15.10;99.90;;;;;;5005237;28;20083;-78
2023/08/06 02:30:16;;;;;;;3.20;2.58;;;15.10;99.90;;;;;;5002157;28;20060;-78
2023/08/06 02:32:42;;;;;;;2.40;2.20;;;15.20;99.90;;;;;;5003066;28;20555;-78
2023/08/06 02:35:07;;;;;;;5.10;2.30;;;15.10;99.90;;;;;;4978597;28;20033;-77
2023/08/06 02:37:34;;;;;;;4.53;2.83;;;15.20;99.90;;;;;;4972979;28;20492;-77
2023/08/06 02:39:59;;;;;;;3.97;2.70;;;15.10;99.90;;;;;;4977877;28;20045;-78
2023/08/06 02:42:26;;;;;;;6.05;3.50;;;15.20;99.90;;;;;;4990135;28;20031;-77
2023/08/06 02:44:54;;;;;;;3.25;2.90;;;15.10;99.90;;;;;;5023147;28;20754;-78
2023/08/06 02:47:20;;;;;;;4.47;3.20;;;15.00;99.90;;;;;;4990746;28;20489;-77
2023/08/06 02:49:46;;;;;;;3.63;2.60;;;15.00;99.90;;;;;;4971793;28;20025;-78
2023/08/06 02:52:11;;;;;;;2.40;2.13;;;15.10;99.90;;;;;;5020791;28;20116;-78
2023/08/06 02:54:37;;;;;;;3.78;3.10;;;15.10;99.90;;;;;;5003284;28;20025;-77
2023/08/06 02:57:02;;;;;;;2.60;2.40;;;15.00;99.90;;;;;;4978106;28;20510;-77
2023/08/06 02:59:28;;;;;;;3.70;3.08;;;15.10;99.90;;;;;;4992318;28;20037;-78
2023/08/06 03:01:54;;;;;;;3.20;2.75;;;14.90;99.90;;;;;;5002645;28;20052;-77
2023/08/06 03:04:19;;;;;;;4.47;3.17;;;15.00;99.90;;;;;;4989072;28;20052;-78
2023/08/06 03:06:45;;;;;;;4.55;2.70;;;14.90;99.90;;;;;;4988383;28;20046;-79
2023/08/06 03:09:10;;;;;;;7.43;2.92;;;15.00;99.90;;;;;;4985173;28;20064;-78
2023/08/06 03:11:36;;;;;;;3.20;2.50;;;14.90;99.90;;;;;;4970373;28;20041;-78
2023/08/06 03:14:01;;;;;;;4.00;2.83;;;14.80;99.90;;;;;;4999379;28;20026;-78
2023/08/06 03:16:27;;;;;;;4.53;3.05;;;14.80;99.90;;;;;;4972980;28;20045;-77
2023/08/06 03:18:52;;;;;;;4.45;2.65;;;14.80;99.90;;;;;;4990455;28;20037;-78
2023/08/06 03:21:18;;;;;;;4.55;2.50;;;14.70;99.90;;;;;;4988054;28;20037;-78
2023/08/06 03:23:46;;;;;;;5.15;2.92;;;14.60;99.90;;;;;;4984928;28;20040;-77
2023/08/06 03:26:11;;;;;;;2.83;2.30;;;14.70;99.90;;;;;;4996521;28;20037;-77
2023/08/06 03:28:37;;;;;;;4.20;2.67;;;14.70;99.90;;;;;;4975659;28;20726;-78
2023/08/06 03:31:03;;;;;;;3.53;2.60;;;14.70;99.90;;;;;;5001986;28;20037;-77
2023/08/06 03:33:29;;;;;;;3.47;2.55;;;14.70;99.90;;;;;;4978195;28;20025;-78
2023/08/06 03:35:54;;;;;;;6.03;2.47;;;14.60;99.90;;;;;;4973627;28;20022;-78
2023/08/06 03:38:20;;;;;;;2.70;2.17;;;14.50;99.90;;;;;;4999074;28;20080;-78
2023/08/06 03:40:48;;;;;;;3.40;2.58;;;14.60;99.90;;;;;;4980729;28;20788;-78
2023/08/06 03:43:14;;;;;;;3.42;2.45;;;14.60;99.90;;;;;;4997740;28;20749;-77
2023/08/06 03:45:44;;;;;;;2.80;2.50;;;14.50;99.90;;;;;;4982403;28;20025;-78
2023/08/06 03:48:10;;;;;;;4.70;2.58;;;14.40;99.90;;;;;;4978292;28;20037;-79
2023/08/06 03:50:35;;;;;;;4.57;2.97;;;14.50;99.90;;;;;;4997217;28;20045;-78
2023/08/06 03:53:01;;;;;;;2.92;2.60;;;14.50;99.90;;;;;;5025167;28;20041;-78
2023/08/06 03:55:27;;;;;;;3.50;2.63;;;14.40;99.90;;;;;;4984569;28;20053;-78
2023/08/06 03:57:52;;;;;;;4.78;2.90;;;14.50;99.90;;;;;;4976512;28;20112;-77
2023/08/06 04:00:18;;;;;;;3.75;3.38;;;14.40;99.90;;;;;;5006253;28;20037;-78
2023/08/06 04:02:44;;;;;;;3.03;2.72;;;14.40;99.90;;;;;;4994014;28;20080;-77
2023/08/06 04:05:09;;;;;;;3.80;2.83;;;14.40;99.90;;;;;;5007710;28;20072;-78
2023/08/06 04:07:35;;;;;;;3.50;2.80;;;14.40;99.90;;;;;;5003986;28;20025;-78
2023/08/06 04:10:02;;;;;;;4.05;2.90;;;14.40;99.90;;;;;;4992968;28;20132;-79
2023/08/06 04:12:28;;;;;;;2.85;2.50;;;14.30;99.90;;;;;;4993179;28;20032;-78
2023/08/06 04:14:54;;;;;;;4.53;2.72;;;14.30;99.90;;;;;;4982578;28;20022;-78
2023/08/06 04:17:23;;;;;;;3.28;2.80;;;14.30;99.90;;;;;;4975355;28;20034;-78
2023/08/06 04:19:52;;;;;;;4.78;3.22;;;14.20;99.90;;;;;;4986735;28;20033;-78
2023/08/06 04:22:18;;;;;;;5.20;3.63;;;14.30;99.90;;;;;;4990477;28;20113;-77
2023/08/06 04:24:44;;;;;;;5.78;3.90;;;14.20;99.90;;;;;;4982551;28;20141;-77
2023/08/06 04:27:10;;;;;;;4.38;2.97;;;14.20;99.90;;;;;;4995523;28;20042;-78
2023/08/06 04:29:36;;;;;;;6.22;4.18;;;14.20;99.90;;;;;;4974965;28;20026;-78
2023/08/06 04:32:03;;;;;;;5.70;3.10;;;14.30;99.90;;;;;;4976611;28;20029;-78
2023/08/06 04:34:28;;;;;;;6.47;3.47;;;14.30;99.90;;;;;;4981505;28;20030;-77
2023/08/06 04:36:54;;;;;;;4.75;3.40;;;14.30;99.90;;;;;;4984661;28;20036;-77
2023/08/06 04:39:20;;;;;;;6.20;4.07;;;14.30;99.90;;;;;;4989393;28;20033;-78
2023/08/06 04:41:45;;;;;;;3.38;2.60;;;14.30;99.90;;;;;;4991290;28;20022;-79
2023/08/06 04:44:11;;;;;;;4.45;3.40;;;14.40;99.90;;;;;;5003608;28;20469;-78
2023/08/06 04:46:36;;;;;;;5.70;2.80;;;14.40;99.90;;;;;;4968181;28;20460;-78
2023/08/06 04:49:02;;;;;;;4.32;3.05;;;14.50;99.90;;;;;;4995222;28;20476;-78
2023/08/06 04:51:27;;;;;;;4.28;2.92;;;14.50;99.90;;;;;;4989752;28;20539;-78
2023/08/06 04:53:53;;;;;;;4.00;2.80;;;14.60;99.90;;;;;;4973411;28;20044;-78
2023/08/06 04:56:18;;;;;;;6.35;2.60;;;14.60;99.90;;;;;;4980735;28;20061;-78
2023/08/06 04:58:44;;;;;;;3.38;2.90;;;14.70;99.90;;;;;;4973314;28;20060;-78
2023/08/06 05:01:09;;;;;;;3.55;3.25;;;14.70;99.90;;;;;;4976394;28;20523;-78
2023/08/06 05:03:35;;;;;;;5.32;3.33;;;14.80;99.90;;;;;;4989266;28;20444;-78
2023/08/06 05:06:00;;;;;;;6.07;3.42;;;14.90;99.90;;;;;;4974211;28;20567;-78
2023/08/06 05:08:26;;;;;;;4.97;3.85;;;15.00;99.90;;;;;;4999384;28;20058;-77
2023/08/06 05:10:52;;;;;;;6.72;4.68;;;15.10;99.90;;;;;;4979693;28;20464;-78
2023/08/06 05:13:17;;;;;;;8.68;3.53;;;15.20;99.90;;;;;;4993934;28;20882;-79
2023/08/06 05:15:45;;;;;;;2.45;2.25;;;15.20;99.90;;;;;;4979737;28;20043;-78
2023/08/06 05:18:11;;;;;;;2.92;2.30;;;15.40;99.90;;;;;;4980013;28;20044;-78
2023/08/06 05:20:37;;;;;;;3.28;2.65;;;15.50;99.90;;;;;;4992628;28;20058;-78
2023/08/06 05:23:03;;;;;;;5.05;2.67;;;15.50;99.90;;;;;;4989822;28;20147;-78
2023/08/06 05:25:29;;;;;;;21.42;2.50;;;15.60;99.90;;;;;;4970576;28;20625;-78
2023/08/06 05:27:55;;;;;;;6.50;3.30;;;15.60;99.90;;;;;;4988819;28;20041;-78
2023/08/06 05:30:20;;;;;;;5.82;3.45;;;15.60;99.90;;;;;;4974067;28;20528;-78
2023/08/06 05:32:46;;;;;;;6.80;2.95;;;15.70;99.90;;;;;;5002684;28;20389;-79
2023/08/06 05:35:11;;;;;;;5.93;2.55;;;15.80;99.90;;;;;;4982417;28;20409;-79
2023/08/06 05:37:37;;;;;;;5.43;2.47;;;15.90;99.90;;;;;;5022408;28;20095;-78
2023/08/06 05:40:03;;;;;;;2.75;2.15;;;16.00;99.90;;;;;;4992064;28;20037;-78
2023/08/06 05:42:29;;;;;;;2.83;2.55;;;16.10;99.90;;;;;;4990170;28;20029;-79
2023/08/06 05:44:55;;;;;;;5.30;2.72;;;16.20;99.90;;;;;;4984045;28;20079;-78
2023/08/06 05:47:20;;;;;;;2.70;1.83;;;16.40;99.90;;;;;;4975721;28;20025;-78
2023/08/06 05:49:46;;;;;;;2.05;1.83;;;16.40;99.90;;;;;;4988447;28;20037;-78
2023/08/06 05:52:12;;;;;;;7.18;2.17;;;16.30;99.90;;;;;;4975688;28;20383;-78
2023/08/06 05:54:37;;;;;;;4.50;2.10;;;16.40;99.90;;;;;;4978272;28;20390;-79
2023/08/06 05:57:03;;;;;;;3.15;2.42;;;16.50;99.90;;;;;;4976896;28;20018;-78
2023/08/06 05:59:29;;;;;;;3.95;2.15;;;16.60;99.90;;;;;;4991741;28;20037;-78
2023/08/06 06:01:54;;;;;;;4.03;2.70;;;16.70;99.90;;;;;;4973012;28;20510;-78
2023/08/06 06:04:20;;;;;;;7.32;3.00;;;16.80;99.90;;;;;;5001450;28;20029;-78
2023/08/06 06:06:46;;;;;;;7.07;2.50;;;16.90;99.90;;;;;;4989760;28;20646;-79
2023/08/06 06:09:11;;;;;;;2.30;2.10;;;16.80;99.90;;;;;;5001010;28;20037;-78
2023/08/06 06:11:37;;;;;;;3.80;2.38;;;17.00;99.90;;;;;;5021937;28;20485;-79
2023/08/06 06:14:02;;;;;;;5.00;2.60;;;17.10;99.90;;;;;;4979849;28;20516;-78
2023/08/06 06:16:28;;;;;;;4.18;2.45;;;17.20;99.90;;;;;;4977986;28;20030;-79
2023/08/06 06:18:54;;;;;;;3.53;1.65;;;17.20;99.90;;;;;;4974488;28;20122;-79
2023/08/06 06:21:20;;;;;;;3.42;2.50;;;17.30;99.90;;;;;;4989377;28;20400;-79
2023/08/06 06:23:45;;;;;;;3.95;1.90;;;17.50;99.90;;;;;;4989198;28;20026;-78
2023/08/06 06:26:11;;;;;;;4.32;2.33;;;17.50;99.90;;;;;;4986100;28;20033;-79
2023/08/06 06:28:36;;;;;;;3.15;2.40;;;17.60;99.90;;;;;;4974888;28;20029;-79
2023/08/06 06:31:03;;;;;;;4.30;1.95;;;17.80;99.90;;;;;;4977060;28;20120;-78
2023/08/06 06:33:28;;;;;;;2.97;1.63;;;17.80;99.90;;;;;;4992472;28;20037;-78
2023/08/06 06:35:54;;;;;;;5.03;1.75;;;17.80;99.90;;;;;;4989208;28;20401;-78
2023/08/06 06:38:19;;;;;;;3.05;2.47;;;17.90;99.90;;;;;;4979909;28;20048;-78
2023/08/06 06:40:54;;;;;;;2.35;2.13;;;18.10;99.90;;;;;;5002879;28;20030;-77
2023/08/06 06:43:19;;;;;;;5.18;2.10;;;18.20;99.90;;;;;;4988143;28;20132;-77
2023/08/06 06:45:45;;;;;;;1.65;1.55;;;18.20;99.90;;;;;;4974213;28;20038;-78
2023/08/06 06:48:10;;;;;;;2.70;1.85;;;18.40;99.90;;;;;;4990070;28;20181;-78
2023/08/06 06:50:36;;;;;;;2.00;1.52;;;18.40;99.90;;;;;;4976143;28;20500;-78
2023/08/06 06:53:01;;;;;;;4.57;2.13;;;18.50;99.90;;;;;;5007496;28;20103;-78
2023/08/06 06:55:27;;;;;;;2.97;2.03;;;18.60;99.90;;;;;;4976744;28;20767;-78
2023/08/06 06:57:53;;;;;;;5.68;2.08;;;18.80;99.90;;;;;;5004782;28;20477;-78
2023/08/06 07:00:18;;;;;;;5.22;2.45;;;19.00;99.90;;;;;;4996151;28;20045;-77
2023/08/06 07:02:44;;;;;;;3.88;1.73;;;19.20;99.90;;;;;;5022266;28;20037;-78
2023/08/06 07:05:09;;;;;;;2.00;1.63;;;19.40;99.90;;;;;;4988886;28;20512;-78
2023/08/06 07:07:36;;;;;;;2.55;1.63;;;19.40;99.90;;;;;;4987185;28;20045;-79
2023/08/06 07:10:02;;;;;;;2.88;1.88;;;19.80;99.90;;;;;;4991138;28;20044;-78
2023/08/06 07:12:27;;;;;;;4.25;1.80;;;20.00;99.90;;;;;;5005911;28;20029;-78
2023/08/06 07:14:53;;;;;;;5.38;1.50;;;20.30;99.90;;;;;;5006145;28;20075;-78
2023/08/06 07:17:19;;;;;;;2.72;1.70;;;20.50;99.90;;;;;;4992348;28;20108;-78
2023/08/06 07:19:44;;;;;;;1.83;1.23;;;20.60;99.90;;;;;;5007861;28;20049;-79
2023/08/06 07:22:10;;;;;;;1.80;1.60;;;20.70;99.90;;;;;;4997824;28;20087;-79
2023/08/06 07:24:36;;;;;;;1.80;1.27;;;20.70;99.90;;;;;;4992538;28;20018;-78
2023/08/06 07:27:01;;;;;;;4.43;1.60;;;21.00;99.90;;;;;;4974197;28;20046;-79
2023/08/06 07:29:27;;;;;;;4.43;1.52;;;21.20;99.90;;;;;;4993490;28;20030;-79
2023/08/06 07:31:52;;;;;;;3.65;1.50;;;21.40;99.90;;;;;;4981773;28;20037;-79
2023/08/06 07:34:18;;;;;;;3.47;1.92;;;21.40;99.90;;;;;;4998571;28;20449;-79
2023/08/06 07:36:45;;;;;;;3.13;1.42;;;21.60;99.90;;;;;;4995444;28;20125;-80
2023/08/06 07:39:11;;;;;;;3.28;1.98;;;21.60;99.90;;;;;;4995378;28;20107;-80
2023/08/06 07:41:36;;;;;;;2.85;1.73;;;21.80;99.90;;;;;;4976184;28;20440;-80
2023/08/06 07:44:02;;;;;;;1.73;1.55;;;22.00;99.90;;;;;;4990869;28;20485;-78
2023/08/06 07:46:27;;;;;;;1.45;1.35;;;22.00;99.90;;;;;;4989128;28;20489;-80
2023/08/06 07:48:53;;;;;;;1.58;1.10;;;22.00;99.90;;;;;;4996523;28;20144;-80
2023/08/06 07:51:19;;;;;;;2.45;1.42;;;21.90;99.90;;;;;;4982942;28;20294;-79
2023/08/06 07:53:45;;;;;;;1.70;1.45;;;22.00;99.90;;;;;;4992922;28;20033;-79
2023/08/06 07:56:10;;;;;;;2.95;1.58;;;22.10;99.90;;;;;;5005715;28;20041;-80
2023/08/06 07:58:36;;;;;;;3.47;1.42;;;22.30;99.90;;;;;;4976857;28;20503;-80
2023/08/06 08:01:01;;;;;;;2.47;1.40;;;22.20;99.90;;;;;;4994219;28;20033;-79
2023/08/06 08:03:27;;;;;;;1.52;1.30;;;22.60;99.90;;;;;;4989783;28;20115;-80
2023/08/06 08:05:57;;;;;;;2.42;1.10;;;22.90;99.90;;;;;;5006210;28;20030;-80
2023/08/06 08:08:23;;;;;;;1.98;1.40;;;23.10;99.90;;;;;;4974194;28;20034;-80
2023/08/06 08:10:48;;;;;;;2.15;1.30;;;23.30;99.90;;;;;;4986699;28;20041;-80
2023/08/06 08:13:14;;;;;;;1.67;1.48;;;23.40;99.90;;;;;;4992750;28;20042;-80
2023/08/06 08:15:39;;;;;;;2.65;1.60;;;23.50;99.90;;;;;;4993268;28;20497;-79
2023/08/06 08:18:05;;;;;;;1.17;1.08;;;23.40;99.90;;;;;;4992431;28;20042;-79
2023/08/06 08:20:35;;;;;;;1.95;1.27;;;23.40;99.90;;;;;;4971680;28;20182;-79
2023/08/06 08:23:00;;;;;;;5.22;1.52;;;23.30;99.90;;;;;;4979418;28;20501;-80
2023/08/06 08:25:26;;;;;;;1.48;1.25;;;23.30;99.90;;;;;;5010036;28;20117;-80
2023/08/06 08:27:53;;;;;;;3.15;1.30;;;23.40;99.90;;;;;;4989874;28;20033;-80
2023/08/06 08:30:18;;;;;;;1.48;1.38;;;23.50;99.90;;;;;;4992763;28;20041;-80
2023/08/06 08:32:44;;;;;;;1.52;1.30;;;23.60;99.90;;;;;;4978296;28;20026;-81
2023/08/06 08:35:12;;;;;;;1.98;1.40;;;23.50;99.90;;;;;;4983405;28;20068;-80
2023/08/06 08:37:38;;;;;;;3.55;1.50;;;23.50;99.90;;;;;;4988349;28;20030;-80
2023/08/06 08:40:04;;;;;;;2.10;1.25;;;23.50;99.90;;;;;;4975305;28;20029;-80
2023/08/06 08:42:32;;;;;;;3.97;1.48;;;23.50;99.90;;;;;;4972685;28;20498;-81
2023/08/06 08:44:57;;;;;;;4.68;1.60;;;23.50;99.90;;;;;;5003151;28;20054;-80
2023/08/06 08:47:23;;;;;;;4.30;1.65;;;23.50;99.90;;;;;;4973241;28;20425;-80
2023/08/06 08:49:49;;;;;;;4.63;1.38;;;23.50;99.90;;;;;;4976671;28;20061;-81
2023/08/06 08:52:14;;;;;;;1.95;1.38;;;23.50;99.90;;;;;;5003773;28;20037;-80
2023/08/06 08:54:40;;;;;;;3.35;1.48;;;23.60;99.90;;;;;;4977231;28;20030;-80
2023/08/06 08:57:05;;;;;;;3.63;1.25;;;23.60;99.90;;;;;;4976973;28;20366;-81
2023/08/06 08:59:33;;;;;;;5.28;1.83;;;23.60;99.90;;;;;;4989395;28;20779;-81
2023/08/06 09:01:59;;;;;;;2.85;1.60;;;23.60;99.90;;;;;;5006611;28;20091;-80
2023/08/06 09:04:25;;;;;;;6.55;1.52;;;23.50;99.90;;;;;;4984747;28;20038;-81
2023/08/06 09:06:51;;;;;;;4.70;1.98;;;23.60;99.90;;;;;;4988316;28;20032;-80
2023/08/06 09:09:22;;;;;;;3.28;1.73;;;23.60;99.90;;;;;;4968297;28;20138;-81
2023/08/06 09:11:49;;;;;;;3.22;1.50;;;23.60;99.90;;;;;;5006868;28;20038;-80
2023/08/06 09:14:14;;;;;;;5.30;2.30;;;23.60;99.90;;;;;;4984228;28;20519;-80
2023/08/06 09:16:40;;;;;;;4.60;2.17;;;23.70;99.90;;;;;;4993585;28;20880;-80
2023/08/06 09:19:15;;;;;;;2.35;1.80;;;23.60;99.90;;;;;;4976886;28;20521;-80
2023/08/06 09:21:41;;;;;;;2.20;2.00;;;23.60;99.90;;;;;;4973840;28;20421;-80
2023/08/06 09:24:13;;;;;;;4.45;2.05;;;23.60;99.90;;;;;;4971322;28;20050;-80
2023/08/06 09:26:39;;;;;;;2.78;1.60;;;23.60;99.90;;;;;;4970057;28;20037;-81
2023/08/06 09:29:07;;;;;;;3.35;1.67;;;23.70;99.90;;;;;;4993729;28;20033;-80
2023/08/06 09:31:40;;;;;;;2.75;1.77;;;23.70;99.90;;;;;;4975863;28;21142;-81
2023/08/06 09:34:10;;;;;;;4.00;1.77;;;23.70;99.90;;;;;;5003710;28;20073;-81
2023/08/06 09:36:41;;;;;;;2.30;1.80;;;23.80;99.90;;;;;;4973418;28;20040;-80
2023/08/06 09:39:16;;;;;;;4.18;2.10;;;23.80;99.90;;;;;;4990710;28;20791;-80
2023/08/06 09:41:42;;;;;;;3.15;2.03;;;23.90;99.90;;;;;;4992175;28;20033;-80
2023/08/06 09:44:30;;;;;;;3.08;2.13;;;24.00;99.90;;;;;;5023374;28;20046;-80
2023/08/06 09:46:59;;;;;;;5.05;2.35;;;23.90;99.90;;;;;;4963296;28;20493;-81
2023/08/06 09:49:27;;;;;;;4.63;2.13;;;23.90;99.90;;;;;;4989861;28;20828;-80
2023/08/06 09:51:55;;;;;;;3.38;2.17;;;23.80;99.90;;;;;;4972788;28;20045;-81
2023/08/06 09:54:24;;;;;;;3.90;1.98;;;23.80;99.90;;;;;;4989182;28;20254;-80
2023/08/06 09:56:59;;;;;;;2.03;1.85;;;23.90;99.90;;;;;;5028228;28;20508;-80
2023/08/06 09:59:27;;;;;;;3.78;2.33;;;23.80;99.90;;;;;;5003816;28;20029;-80
2023/08/06 10:01:53;;;;;;;4.75;2.17;;;23.80;99.90;;;;;;5017532;28;20040;-80
2023/08/06 10:04:20;;;;;;;5.05;2.47;;;24.00;99.90;;;;;;5001667;28;20037;-80
2023/08/06 10:06:48;;;;;;;5.75;2.17;;;24.10;99.90;;;;;;5031643;28;20064;-80
2023/08/06 10:09:14;;;;;;;4.85;2.72;;;24.20;99.90;;;;;;4998070;28;20030;-80
2023/08/06 10:11:40;;;;;;;4.78;2.70;;;24.40;99.90;;;;;;4999582;28;20041;-80
2023/08/06 10:14:18;;;;;;;6.38;2.35;;;24.50;99.90;;;;;;5012481;28;20513;-79
2023/08/06 10:16:44;;;;;;;6.78;2.60;;;24.80;99.90;;;;;;5006040;28;20041;-80
2023/08/06 10:19:10;;;;;;;4.13;2.65;;;24.70;99.90;;;;;;4993911;28;20394;-79
2023/08/06 10:21:37;;;;;;;4.55;2.20;;;24.80;99.90;;;;;;5011596;28;20423;-79
2023/08/06 10:24:03;;;;;;;3.97;2.40;;;24.90;99.90;;;;;;5014589;28;21348;-79
2023/08/06 10:26:29;;;;;;;6.50;2.78;;;25.10;99.90;;;;;;4982374;28;20030;-79
2023/08/06 10:28:55;;;;;;;3.05;2.20;;;25.30;99.90;;;;;;4999697;28;20038;-78
2023/08/06 10:31:40;;;;;;;4.68;2.67;;;25.30;99.90;;;;;;5006312;28;20026;-79
2023/08/06 10:34:06;;;;;;;2.92;2.55;;;25.50;99.90;;;;;;5000477;28;20038;-79
2023/08/06 10:36:32;;;;;;;2.65;2.45;;;25.70;99.90;;;;;;5007278;28;20501;-79
2023/08/06 10:38:58;;;;;;;3.67;2.53;;;25.80;99.90;;;;;;5012835;28;20402;-78
2023/08/06 10:41:28;;;;;;;3.22;2.80;;;25.90;99.90;;;;;;5000054;28;20038;-78
2023/08/06 10:44:07;;;;;;;3.10;2.45;;;26.00;99.90;;;;;;4997620;28;20780;-78
2023/08/06 10:46:32;;;;;;;3.97;2.60;;;25.90;99.90;;;;;;5012007;28;20033;-79
2023/08/06 10:48:58;;;;;;;3.13;2.88;;;25.90;99.90;;;;;;4998297;28;20056;-78
2023/08/06 10:51:24;;;;;;;4.40;2.63;;;25.90;99.90;;;;;;5015484;28;20590;-79
2023/08/06 10:53:49;;;;;;;3.28;2.75;;;25.80;99.90;;;;;;4998135;28;20029;-78
2023/08/06 10:56:22;;;;;;;5.28;4.00;;;25.80;99.90;;;;;;5012461;28;20532;-79
2023/08/06 10:58:48;;;;;;;4.93;4.00;;;25.70;99.90;;;;;;5000579;28;20584;-78
2023/08/06 11:01:13;;;;;;;6.00;4.13;;;25.30;99.90;;;;;;5013157;28;20034;-79
2023/08/06 11:03:39;;;;;;;6.97;5.40;;;25.10;99.90;;;;;;5012763;28;20033;-78
2023/08/06 11:06:07;;;;;;;6.15;5.35;;;24.70;99.90;;;;;;4994480;28;20030;-79
2023/08/06 11:08:40;;;;;;;19.38;5.80;;;24.30;99.90;;;;;;4980810;28;20042;-77
2023/08/06 11:11:13;;;;;;;7.75;6.20;;;23.90;99.90;;;;;;4993654;28;20033;-78
2023/08/06 11:13:42;;;;;;;6.85;5.85;;;23.50;99.90;;;;;;5000447;28;20041;-78
2023/08/06 11:16:08;;;;;;;7.80;6.00;;;23.20;99.90;;;;;;4995601;28;20685;-78
2023/08/06 11:18:34;;;;;;;5.63;4.80;;;23.00;99.90;;;;;;4999867;28;20696;-78
2023/08/06 11:21:00;;;;;;;6.15;5.30;;;22.90;99.90;;;;;;4996976;28;20038;-78
2023/08/06 11:23:28;;;;;;;4.57;4.18;;;22.90;99.90;;;;;;5002487;28;20034;-78
2023/08/06 11:25:55;;;;;;;4.63;3.95;;;22.90;99.90;;;;;;4983193;28;20497;-78
2023/08/06 11:28:22;;;;;;;5.72;5.18;;;22.90;99.90;;;;;;4998021;28;20053;-78
2023/08/06 11:30:49;;;;;;;5.40;4.90;;;22.90;99.90;;;;;;4995662;28;20033;-79
2023/08/06 11:33:14;;;;;;;4.88;4.10;;;22.90;99.90;;;;;;4304523;28;10000513;-79
2023/08/06 11:35:40;;;;;;;4.95;4.45;;;22.90;99.90;;;;;;4974028;28;20082;-79
2023/08/06 11:38:06;;;;;;;4.32;3.25;;;22.90;99.90;;;;;;4979082;28;20343;-79
2023/08/06 11:40:35;;;;;;;4.88;3.13;;;22.70;99.90;;;;;;4982087;28;20065;-78
2023/08/06 11:43:01;;;;;;;4.25;2.95;;;22.20;99.90;;;;;;4970409;28;20064;-78
2023/08/06 11:45:26;;;;;;;11.45;2.03;;;22.00;99.90;;;;;;4667222;28;10000563;-79
2023/08/06 11:47:52;;;;;;;5.45;2.28;;;21.60;99.90;;;;;;4998808;28;20076;-80
2023/08/06 11:50:25;;;;;;;2.42;2.20;;;21.30;99.90;;;;;;4977766;28;20033;-80
2023/08/06 11:53:02;;;;;;;3.13;1.73;;;20.90;99.90;;;;;;4967997;28;20038;-80
2023/08/06 11:55:28;;;;;;;1.35;1.25;;;20.60;99.90;;;;;;4998650;28;20046;-80
2023/08/06 11:57:54;;;;;;;5.93;1.50;;;20.20;99.90;;;;;;4980337;28;20038;-79
2023/08/06 12:00:21;;;;;;;4.07;1.40;;;19.90;99.90;;;;;;4978031;28;20034;-78
2023/08/06 12:02:49;;;;;;;2.42;1.50;;;19.50;99.90;;;;;;4998737;28;20046;-78
2023/08/06 12:05:24;;;;;;;1.60;1.50;;;19.30;99.90;;;;;;4998259;28;20038;-79
2023/08/06 12:07:51;;;;;;;3.85;1.95;;;19.20;99.90;;;;;;4963927;28;20034;-79
2023/08/06 12:10:20;;;;;;;6.85;2.72;;;19.10;99.90;;;;;;4968566;28;20562;-78
2023/08/06 12:12:48;;;;;;;1.90;1.67;;;19.00;99.90;;;;;;4980961;28;20094;-81
2023/08/06 12:15:15;;;;;;;3.92;1.70;;;18.90;99.90;;;;;;4998807;28;20048;-79
2023/08/06 12:17:41;;;;;;;3.03;1.85;;;18.80;99.90;;;;;;4962006;28;20120;-79
2023/08/06 12:20:07;;;;;;;2.95;2.13;;;18.70;99.90;;;;;;4991077;28;20445;-78
2023/08/06 12:22:35;;;;;;;2.35;1.42;;;18.60;99.90;;;;;;4983512;28;20037;-78
2023/08/06 12:25:08;;;;;;;2.92;1.17;;;18.40;99.90;;;;;;4984292;28;20041;-78
2023/08/06 12:27:36;;;;;;;1.80;1.67;;;18.30;99.90;;;;;;4969948;28;20027;-78
2023/08/06 12:30:03;;;;;;;1.58;1.20;;;18.10;99.90;;;;;;4993616;28;20030;-77
2023/08/06 12:32:29;;;;;;;4.22;1.40;;;18.00;99.90;;;;;;4993689;28;20030;-77
2023/08/06 12:34:54;;;;;;;4.78;1.30;;;17.80;99.90;;;;;;4980701;28;20038;-77
2023/08/06 12:37:20;;;;;;;5.18;1.33;;;17.60;99.90;;;;;;4974579;28;20034;-77
2023/08/06 12:39:45;;;;;;;1.98;1.13;;;17.50;99.90;;;;;;4983173;28;20038;-78
2023/08/06 12:42:11;;;;;;;7.70;1.05;;;17.50;99.90;;;;;;4983242;28;20037;-78
2023/08/06 12:44:36;;;;;;;2.72;1.08;;;17.40;99.90;;;;;;4985949;28;20074;-79